Time;durP1;ratioP1;P1;durP2;ratioP2;P2;SDS_P1;SDS_P2;PMS_P1;PMS_P2;Temp;Humidity;BMP_temperature;BMP_pressure;BME280_temperature;BME280_humidity;BME280_pressure;Samples;Min_cycle;Max_cycle;Signal;HPM_P1;HPM_P2
2022/01/07 00:00:42;;;;;;;37.50;17.23;;;2.70;99.90;;;;;;5021723;28;20198;-81
2022/01/07 00:03:11;;;;;;;31.47;14.97;;;2.70;99.90;;;;;;5022390;28;20178;-81
2022/01/07 00:05:37;;;;;;;34.80;16.27;;;2.80;99.90;;;;;;5023431;28;20202;-81
2022/01/07 00:08:03;;;;;;;31.53;15.97;;;2.70;99.90;;;;;;5023021;28;20174;-82
2022/01/07 00:10:47;;;;;;;36.40;16.17;;;2.80;99.90;;;;;;5006479;28;20186;-81
2022/01/07 00:13:13;;;;;;;34.10;16.10;;;2.80;99.90;;;;;;5009900;28;20222;-81
2022/01/07 00:15:40;;;;;;;26.83;15.47;;;2.80;99.90;;;;;;5026129;28;20194;-82
2022/01/07 00:18:07;;;;;;;30.57;14.73;;;2.90;99.90;;;;;;5024221;28;20178;-81
2022/01/07 00:20:33;;;;;;;28.03;14.83;;;3.00;99.90;;;;;;5025461;28;20193;-81
2022/01/07 00:23:00;;;;;;;34.70;16.37;;;2.90;99.90;;;;;;5027199;28;20208;-81
2022/01/07 00:25:26;;;;;;;36.53;16.50;;;2.90;99.90;;;;;;5022860;28;20314;-82
2022/01/07 00:27:52;;;;;;;33.37;17.10;;;2.80;99.90;;;;;;5022195;28;20198;-85
2022/01/07 00:30:20;;;;;;;32.50;15.87;;;2.90;99.90;;;;;;5022492;28;20174;-83
2022/01/07 00:32:46;;;;;;;32.37;16.23;;;2.90;99.90;;;;;;5032753;28;20244;-82
2022/01/07 00:35:14;;;;;;;32.50;16.53;;;2.90;99.90;;;;;;5040528;28;20178;-81
2022/01/07 00:37:40;;;;;;;33.13;14.87;;;2.90;99.90;;;;;;5034056;28;20182;-82
2022/01/07 00:40:09;;;;;;;27.77;14.87;;;2.80;99.90;;;;;;5034285;28;20269;-81
2022/01/07 00:42:35;;;;;;;34.73;15.53;;;2.80;99.90;;;;;;5032422;28;20184;-82
2022/01/07 00:45:01;;;;;;;34.00;16.10;;;2.80;99.90;;;;;;5031992;28;20202;-81
2022/01/07 00:47:27;;;;;;;30.13;14.37;;;2.70;99.90;;;;;;5032702;28;20182;-82
2022/01/07 00:49:53;;;;;;;28.17;14.60;;;2.70;99.90;;;;;;5015920;28;20245;-82
2022/01/07 00:52:19;;;;;;;37.60;14.73;;;2.70;99.90;;;;;;5032647;28;20214;-83
2022/01/07 00:54:45;;;;;;;30.83;14.40;;;2.70;99.90;;;;;;5029302;28;20198;-83
2022/01/07 00:57:10;;;;;;;27.83;13.67;;;2.70;99.90;;;;;;5030323;28;20200;-83
2022/01/07 00:59:36;;;;;;;27.20;14.03;;;2.80;99.90;;;;;;5030140;28;20181;-83
2022/01/07 01:02:03;;;;;;;27.57;14.00;;;2.70;99.90;;;;;;5029478;28;20247;-83
2022/01/07 01:04:28;;;;;;;25.00;13.70;;;2.70;99.90;;;;;;5013742;28;20344;-84
2022/01/07 01:06:54;;;;;;;30.70;14.07;;;2.80;99.90;;;;;;5031112;28;20194;-84
2022/01/07 01:09:20;;;;;;;29.60;12.90;;;2.80;99.90;;;;;;5025673;28;20212;-82
2022/01/07 01:11:46;;;;;;;24.00;13.30;;;2.70;99.90;;;;;;5029501;28;20221;-83
2022/01/07 01:14:14;;;;;;;24.50;12.67;;;2.80;99.90;;;;;;5040015;28;20192;-82
2022/01/07 01:16:40;;;;;;;27.93;12.07;;;2.80;99.90;;;;;;5036459;28;20246;-83
2022/01/07 01:19:06;;;;;;;26.90;12.77;;;2.80;99.90;;;;;;5042959;28;20193;-82
2022/01/07 01:21:33;;;;;;;22.10;11.93;;;2.80;99.90;;;;;;5039859;28;20234;-81
2022/01/07 01:23:59;;;;;;;26.30;12.33;;;2.80;99.90;;;;;;5030373;28;20190;-82
2022/01/07 01:26:25;;;;;;;24.67;12.90;;;2.80;99.90;;;;;;5028736;28;20182;-82
2022/01/07 01:28:50;;;;;;;28.43;13.10;;;2.80;99.90;;;;;;5027594;28;20457;-82
2022/01/07 01:31:17;;;;;;;26.97;12.17;;;2.80;99.90;;;;;;5029086;28;20693;-82
2022/01/07 01:33:44;;;;;;;22.90;11.90;;;2.80;99.90;;;;;;5028580;28;20219;-82
2022/01/07 01:36:11;;;;;;;25.83;12.23;;;2.90;99.90;;;;;;5031892;28;20201;-82
2022/01/07 01:38:38;;;;;;;22.93;11.23;;;2.90;99.90;;;;;;5007619;28;20186;-82
2022/01/07 01:41:05;;;;;;;22.87;11.00;;;2.80;99.90;;;;;;5029433;28;20182;-82
2022/01/07 01:43:31;;;;;;;23.53;11.57;;;2.90;99.90;;;;;;5026256;28;20189;-82
2022/01/07 01:45:56;;;;;;;28.00;11.73;;;2.90;99.90;;;;;;5023709;28;20360;-83
2022/01/07 01:48:23;;;;;;;24.30;11.37;;;2.80;99.90;;;;;;5022297;28;20328;-81
2022/01/07 01:50:50;;;;;;;23.07;10.87;;;2.90;99.90;;;;;;5023548;28;20182;-82
2022/01/07 01:53:16;;;;;;;23.13;11.53;;;2.90;99.90;;;;;;5024230;28;20506;-84
2022/01/07 01:55:42;;;;;;;23.47;11.27;;;2.90;99.90;;;;;;5024062;28;20262;-83
2022/01/07 01:58:11;;;;;;;24.03;10.93;;;2.90;99.90;;;;;;5031281;28;20206;-83
2022/01/07 02:00:40;;;;;;;24.47;11.37;;;2.90;99.90;;;;;;5024136;28;20539;-82
2022/01/07 02:03:06;;;;;;;25.70;11.97;;;2.90;99.90;;;;;;5028064;28;20206;-83
2022/01/07 02:05:33;;;;;;;26.57;10.67;;;2.90;99.90;;;;;;5027355;28;20786;-82
2022/01/07 02:08:01;;;;;;;21.80;10.27;;;2.90;99.90;;;;;;5024845;28;20268;-82
2022/01/07 02:10:27;;;;;;;27.23;11.00;;;2.90;99.90;;;;;;5024309;28;20213;-82
2022/01/07 02:12:53;;;;;;;28.30;11.50;;;2.90;99.90;;;;;;5023954;28;20328;-82
2022/01/07 02:15:19;;;;;;;25.03;11.13;;;2.90;99.90;;;;;;5032729;28;20208;-82
2022/01/07 02:17:48;;;;;;;18.97;9.73;;;2.90;99.90;;;;;;5035364;28;20174;-82
2022/01/07 02:20:17;;;;;;;23.53;9.83;;;2.80;99.90;;;;;;5029421;28;20210;-81
2022/01/07 02:22:43;;;;;;;22.70;10.20;;;2.90;99.90;;;;;;5010884;28;20178;-83
2022/01/07 02:25:10;;;;;;;25.20;9.60;;;2.90;99.90;;;;;;5024553;28;20217;-83
2022/01/07 02:27:42;;;;;;;14.97;8.70;;;2.90;99.90;;;;;;5023553;28;20272;-82
2022/01/07 02:30:12;;;;;;;17.80;9.10;;;3.00;99.90;;;;;;5007474;28;20545;-82
2022/01/07 02:32:38;;;;;;;17.43;9.13;;;3.00;99.90;;;;;;5024002;28;20297;-79
2022/01/07 02:35:05;;;;;;;18.67;9.27;;;3.00;99.90;;;;;;5022772;28;20210;-81
2022/01/07 02:37:31;;;;;;;17.67;8.70;;;3.00;99.90;;;;;;5022691;28;20181;-81
2022/01/07 02:39:57;;;;;;;17.73;8.90;;;3.00;99.90;;;;;;5023765;28;20542;-81
2022/01/07 02:42:26;;;;;;;22.80;8.90;;;3.00;99.90;;;;;;5022917;28;20185;-82
2022/01/07 02:44:52;;;;;;;23.30;10.17;;;3.10;99.90;;;;;;5002332;28;20259;-81
2022/01/07 02:47:19;;;;;;;17.57;7.97;;;3.00;99.90;;;;;;5026953;28;20178;-81
2022/01/07 02:49:45;;;;;;;17.93;8.50;;;3.20;99.90;;;;;;5015191;28;20180;-82
2022/01/07 02:52:10;;;;;;;20.10;8.83;;;3.10;99.90;;;;;;5022840;28;20202;-82
2022/01/07 02:54:36;;;;;;;18.57;9.20;;;3.10;99.90;;;;;;5022583;28;20223;-82
2022/01/07 02:57:02;;;;;;;23.93;8.77;;;3.10;99.90;;;;;;5021550;28;20951;-81
2022/01/07 02:59:27;;;;;;;18.33;7.80;;;3.10;99.90;;;;;;5026817;28;20182;-83
2022/01/07 03:01:53;;;;;;;16.50;7.77;;;3.10;99.90;;;;;;5010509;28;20257;-81
2022/01/07 03:04:19;;;;;;;15.20;7.77;;;3.10;99.90;;;;;;5025127;28;20228;-82
2022/01/07 03:06:45;;;;;;;20.63;7.97;;;3.10;99.90;;;;;;5023915;28;20320;-82
2022/01/07 03:09:10;;;;;;;15.13;7.10;;;3.00;99.90;;;;;;5022155;28;20240;-82
2022/01/07 03:11:36;;;;;;;20.67;7.53;;;3.00;99.90;;;;;;5023078;28;20538;-82
2022/01/07 03:14:03;;;;;;;18.53;7.83;;;3.00;99.90;;;;;;5023068;28;20321;-82
2022/01/07 03:16:28;;;;;;;18.00;7.10;;;3.00;99.90;;;;;;5021014;28;20177;-83
2022/01/07 03:18:54;;;;;;;14.03;7.00;;;3.00;99.90;;;;;;5021724;28;20185;-82
2022/01/07 03:21:20;;;;;;;15.37;6.63;;;3.00;99.90;;;;;;5022794;28;20178;-82
2022/01/07 03:23:45;;;;;;;17.50;6.90;;;3.00;99.90;;;;;;5022988;28;20246;-82
2022/01/07 03:26:11;;;;;;;17.70;6.57;;;3.00;99.90;;;;;;5006906;28;20194;-82
2022/01/07 03:28:38;;;;;;;16.10;7.47;;;3.00;99.90;;;;;;5020992;28;20192;-82
2022/01/07 03:31:05;;;;;;;16.03;7.00;;;3.10;99.90;;;;;;5015601;28;20202;-83
2022/01/07 03:33:31;;;;;;;14.00;5.87;;;3.10;99.90;;;;;;5032462;28;20622;-82
2022/01/07 03:35:57;;;;;;;12.57;6.17;;;3.10;99.90;;;;;;5026916;28;20197;-82
2022/01/07 03:38:22;;;;;;;13.17;6.27;;;3.20;99.90;;;;;;5027740;28;20176;-83
2022/01/07 03:40:49;;;;;;;13.83;6.20;;;3.20;99.90;;;;;;5007308;28;20174;-83
2022/01/07 03:43:27;;;;;;;16.97;6.63;;;3.20;99.90;;;;;;5023965;28;21141;-87
2022/01/07 03:45:53;;;;;;;14.13;5.80;;;3.30;99.90;;;;;;5009142;28;20213;-83
2022/01/07 03:48:19;;;;;;;14.57;5.70;;;3.30;99.90;;;;;;5023335;28;20181;-83
2022/01/07 03:50:44;;;;;;;11.67;6.40;;;3.30;99.90;;;;;;5023785;28;20239;-82
2022/01/07 03:53:10;;;;;;;15.43;5.80;;;3.30;99.90;;;;;;5007793;28;20206;-82
2022/01/07 03:55:36;;;;;;;10.33;5.50;;;3.30;99.90;;;;;;5008770;28;20198;-83
2022/01/07 03:58:02;;;;;;;14.37;5.70;;;3.30;99.90;;;;;;5023887;28;20198;-83
2022/01/07 04:00:34;;;;;;;14.63;5.20;;;3.20;99.90;;;;;;5017509;28;20174;-82
2022/01/07 04:03:02;;;;;;;12.40;5.17;;;3.20;99.90;;;;;;5035729;28;20186;-83
2022/01/07 04:05:27;;;;;;;18.93;5.77;;;3.20;99.90;;;;;;5036326;28;20190;-82
2022/01/07 04:07:53;;;;;;;17.83;5.70;;;3.20;99.90;;;;;;5021751;28;20184;-83
2022/01/07 04:10:19;;;;;;;14.97;6.03;;;3.20;99.90;;;;;;5038129;28;20181;-82
2022/01/07 04:12:45;;;;;;;12.70;4.90;;;3.20;99.90;;;;;;5037783;28;20266;-83
2022/01/07 04:15:11;;;;;;;14.00;5.53;;;3.20;99.90;;;;;;5036835;28;20194;-82
2022/01/07 04:17:48;;;;;;;15.63;5.27;;;3.20;99.90;;;;;;5028586;28;20193;-82
2022/01/07 04:20:18;;;;;;;13.27;5.80;;;3.20;99.90;;;;;;5005827;28;20525;-79
2022/01/07 04:22:44;;;;;;;12.53;5.30;;;3.20;99.90;;;;;;5022707;28;20181;-80
2022/01/07 04:25:18;;;;;;;12.20;5.20;;;3.20;99.90;;;;;;5021230;28;20205;-82
2022/01/07 04:27:49;;;;;;;14.63;5.10;;;3.20;99.90;;;;;;5004910;28;20178;-83
2022/01/07 04:30:15;;;;;;;11.40;4.57;;;3.00;99.90;;;;;;5003600;28;20227;-82
2022/01/07 04:32:42;;;;;;;14.10;6.17;;;2.90;99.90;;;;;;5021518;28;20210;-82
2022/01/07 04:35:09;;;;;;;15.63;6.40;;;2.80;99.90;;;;;;5022352;28;20193;-82
2022/01/07 04:37:35;;;;;;;17.00;6.03;;;2.80;99.90;;;;;;5014778;28;20177;-82
2022/01/07 04:40:03;;;;;;;12.87;5.73;;;2.70;99.90;;;;;;5029136;28;20318;-83
2022/01/07 04:42:31;;;;;;;19.87;6.60;;;2.60;99.90;;;;;;5021276;28;20190;-83
2022/01/07 04:44:57;;;;;;;14.13;7.07;;;2.40;99.90;;;;;;5027535;28;20206;-83
2022/01/07 04:47:23;;;;;;;11.70;6.43;;;2.20;99.90;;;;;;5014473;28;20177;-83
2022/01/07 04:49:48;;;;;;;12.37;6.10;;;2.00;99.90;;;;;;5012682;28;20281;-83
2022/01/07 04:52:16;;;;;;;14.27;6.73;;;1.90;99.90;;;;;;5030223;28;20200;-83
2022/01/07 04:54:43;;;;;;;16.13;7.30;;;1.90;99.90;;;;;;5010894;28;20189;-82
2022/01/07 04:57:09;;;;;;;15.80;7.30;;;1.90;99.90;;;;;;5011310;28;20170;-83
2022/01/07 04:59:35;;;;;;;16.87;7.10;;;1.80;99.90;;;;;;5016101;28;20170;-83
2022/01/07 05:02:00;;;;;;;16.17;7.40;;;1.80;99.90;;;;;;5027991;28;20192;-82
2022/01/07 05:04:26;;;;;;;20.67;7.93;;;1.70;99.90;;;;;;5025700;28;20202;-82
2022/01/07 05:06:52;;;;;;;13.87;7.33;;;1.70;99.90;;;;;;5007698;28;20189;-83
2022/01/07 05:09:19;;;;;;;15.70;7.90;;;1.70;99.90;;;;;;5024905;28;20174;-82
2022/01/07 05:11:45;;;;;;;16.83;7.60;;;1.70;99.90;;;;;;5024472;28;20208;-81
2022/01/07 05:14:12;;;;;;;16.13;7.90;;;1.70;99.90;;;;;;5012281;28;20182;-81
2022/01/07 05:16:38;;;;;;;17.97;8.30;;;1.80;99.90;;;;;;5037711;28;20184;-80
2022/01/07 05:19:03;;;;;;;16.73;7.73;;;1.90;99.90;;;;;;5025187;28;20174;-81
2022/01/07 05:21:29;;;;;;;19.00;8.13;;;1.80;99.90;;;;;;5033893;28;20227;-81
2022/01/07 05:23:55;;;;;;;16.70;7.93;;;1.80;99.90;;;;;;5028620;28;20198;-81
2022/01/07 05:26:21;;;;;;;17.03;8.43;;;1.70;99.90;;;;;;5010298;28;20212;-81
2022/01/07 05:28:47;;;;;;;16.33;8.40;;;1.80;99.90;;;;;;5025756;28;20166;-81
2022/01/07 05:31:12;;;;;;;16.67;8.93;;;1.90;99.90;;;;;;5025012;28;20272;-81
2022/01/07 05:33:38;;;;;;;15.87;8.30;;;1.90;99.90;;;;;;5026286;28;20209;-81
2022/01/07 05:36:04;;;;;;;15.13;8.40;;;1.90;99.90;;;;;;5025728;28;20213;-81
2022/01/07 05:38:30;;;;;;;13.80;7.83;;;1.90;99.90;;;;;;5008252;28;20514;-81
2022/01/07 05:40:55;;;;;;;14.83;7.93;;;1.80;99.90;;;;;;5024624;28;20166;-82
2022/01/07 05:43:21;;;;;;;19.60;8.50;;;1.90;99.90;;;;;;5023831;28;20174;-81
2022/01/07 05:45:47;;;;;;;17.07;7.80;;;1.90;99.90;;;;;;5027888;28;20304;-81
2022/01/07 05:48:13;;;;;;;15.53;7.77;;;1.80;99.90;;;;;;5023253;28;20173;-81
2022/01/07 05:50:39;;;;;;;16.53;8.13;;;1.70;99.90;;;;;;5024532;28;20268;-82
2022/01/07 05:53:05;;;;;;;14.33;8.23;;;1.70;99.90;;;;;;5025767;28;20208;-81
2022/01/07 05:55:33;;;;;;;17.13;8.47;;;1.70;99.90;;;;;;5007157;28;20201;-81
2022/01/07 05:57:58;;;;;;;18.03;8.27;;;1.70;99.90;;;;;;5027017;28;20178;-82
2022/01/07 06:00:25;;;;;;;17.67;8.80;;;1.70;99.90;;;;;;5035639;28;20204;-82
2022/01/07 06:02:51;;;;;;;17.13;9.70;;;1.60;99.90;;;;;;5036733;28;20219;-82
2022/01/07 06:05:17;;;;;;;19.93;8.90;;;1.60;99.90;;;;;;5034799;28;20190;-81
2022/01/07 06:07:42;;;;;;;17.63;9.03;;;1.70;99.90;;;;;;5029137;28;20186;-81
2022/01/07 06:10:09;;;;;;;21.23;9.70;;;1.70;99.90;;;;;;5036320;28;20178;-81
2022/01/07 06:12:35;;;;;;;17.33;9.17;;;1.80;99.90;;;;;;5035517;28;20215;-82
2022/01/07 06:15:00;;;;;;;18.30;9.50;;;1.80;99.90;;;;;;5029031;28;20201;-81
2022/01/07 06:17:26;;;;;;;17.17;9.30;;;1.70;99.90;;;;;;5024119;28;20287;-81
2022/01/07 06:19:52;;;;;;;17.87;10.20;;;1.60;99.90;;;;;;5008422;28;20178;-82
2022/01/07 06:22:18;;;;;;;16.60;9.27;;;1.70;99.90;;;;;;5024667;28;20178;-83
2022/01/07 06:24:44;;;;;;;16.83;10.00;;;1.70;99.90;;;;;;5008673;28;20197;-82
2022/01/07 06:27:10;;;;;;;17.63;9.40;;;1.80;99.90;;;;;;5029017;28;20546;-82
2022/01/07 06:29:37;;;;;;;15.97;9.17;;;1.80;99.90;;;;;;5025005;28;20669;-82
2022/01/07 06:32:04;;;;;;;18.00;9.30;;;1.80;99.90;;;;;;5023246;28;20202;-82
2022/01/07 06:34:30;;;;;;;14.43;9.13;;;1.90;99.90;;;;;;5006948;28;20202;-82
2022/01/07 06:36:58;;;;;;;19.13;9.87;;;1.90;99.90;;;;;;5002580;28;20535;-82
2022/01/07 06:39:24;;;;;;;15.27;9.30;;;1.80;99.90;;;;;;5005263;28;20216;-81
2022/01/07 06:41:51;;;;;;;20.53;9.67;;;1.70;99.90;;;;;;5023547;28;20189;-81
2022/01/07 06:44:18;;;;;;;25.40;11.47;;;1.70;99.90;;;;;;5023158;28;20182;-81
2022/01/07 06:46:44;;;;;;;17.80;11.23;;;1.70;99.90;;;;;;5025154;28;20182;-82
2022/01/07 06:49:09;;;;;;;14.83;10.00;;;1.80;99.90;;;;;;5031621;28;20173;-82
2022/01/07 06:51:38;;;;;;;18.63;9.70;;;1.80;99.90;;;;;;5023245;28;20241;-82
2022/01/07 06:54:04;;;;;;;16.27;9.63;;;1.80;99.90;;;;;;5022905;28;20182;-82
2022/01/07 06:56:30;;;;;;;15.30;8.97;;;1.80;99.90;;;;;;5032393;22;20228;-78
2022/01/07 06:58:55;;;;;;;16.63;10.57;;;1.80;99.90;;;;;;5015138;28;20185;-76
2022/01/07 07:01:21;;;;;;;15.53;8.93;;;1.90;99.90;;;;;;5019275;28;20219;-78
2022/01/07 07:03:46;;;;;;;11.33;8.23;;;1.80;99.90;;;;;;5014713;28;20177;-77
2022/01/07 07:06:13;;;;;;;28.13;9.67;;;1.80;99.90;;;;;;5025445;28;20173;-77
2022/01/07 07:08:39;;;;;;;15.27;8.50;;;1.70;99.90;;;;;;5014857;28;20620;-78
2022/01/07 07:11:04;;;;;;;14.97;8.77;;;1.80;99.90;;;;;;5018778;28;20188;-78
2022/01/07 07:13:30;;;;;;;11.73;8.73;;;1.70;99.90;;;;;;5012067;28;20205;-78
2022/01/07 07:15:56;;;;;;;10.83;8.53;;;1.80;99.90;;;;;;5015903;28;20182;-77
2022/01/07 07:18:22;;;;;;;13.17;8.57;;;1.70;99.90;;;;;;5012085;28;20663;-78
2022/01/07 07:20:47;;;;;;;15.23;9.30;;;1.60;99.90;;;;;;5019317;28;20181;-78
2022/01/07 07:23:13;;;;;;;12.13;9.53;;;1.50;99.90;;;;;;5014759;28;20188;-78
2022/01/07 07:25:39;;;;;;;13.43;9.17;;;1.60;99.90;;;;;;5020246;28;20177;-78
2022/01/07 07:28:05;;;;;;;14.87;9.43;;;1.60;99.90;;;;;;5014286;28;20532;-78
2022/01/07 07:30:36;;;;;;;14.17;9.87;;;1.60;99.90;;;;;;5009146;28;20673;-78
2022/01/07 07:33:28;;;;;;;15.27;10.30;;;1.60;99.90;;;;;;5012714;28;20229;-77
2022/01/07 07:38:38;;;;;;;16.13;10.43;;;1.70;99.90;;;;;;5036385;28;20169;-78
2022/01/07 07:41:06;;;;;;;17.93;10.90;;;1.60;99.90;;;;;;5020675;28;20223;-78
2022/01/07 07:43:32;;;;;;;15.53;10.27;;;1.70;99.90;;;;;;5018580;28;20468;-78
2022/01/07 07:45:58;;;;;;;16.03;10.70;;;1.60;99.90;;;;;;5035548;28;20241;-78
2022/01/07 07:48:24;;;;;;;16.63;10.40;;;1.60;99.90;;;;;;5018668;28;20184;-78
2022/01/07 07:50:50;;;;;;;18.43;10.33;;;1.60;99.90;;;;;;5017840;28;20188;-78
2022/01/07 07:53:26;;;;;;;19.47;11.53;;;1.60;99.90;;;;;;5018349;28;20215;-77
2022/01/07 07:55:53;;;;;;;16.90;11.30;;;1.70;99.90;;;;;;5033675;28;20593;-77
2022/01/07 07:58:24;;;;;;;20.13;11.00;;;1.60;99.90;;;;;;5014791;28;20209;-77
2022/01/07 08:00:50;;;;;;;21.93;12.00;;;1.70;99.90;;;;;;5026679;28;20165;-78
2022/01/07 08:03:33;;;;;;;15.30;11.00;;;1.80;99.90;;;;;;5015685;28;20694;-78
2022/01/07 08:05:59;;;;;;;19.17;10.97;;;1.90;99.90;;;;;;5034617;28;20181;-76
2022/01/07 08:08:24;;;;;;;13.93;10.53;;;1.90;99.90;;;;;;5025288;28;20537;-77
2022/01/07 08:11:01;;;;;;;13.07;10.57;;;2.00;99.90;;;;;;5034683;28;20180;-77
2022/01/07 08:13:28;;;;;;;15.70;11.00;;;2.00;99.90;;;;;;5017703;28;20607;-77
2022/01/07 08:15:58;;;;;;;18.73;11.77;;;2.00;99.90;;;;;;5016316;28;20302;-77
2022/01/07 08:18:35;;;;;;;17.27;10.40;;;2.00;99.90;;;;;;5019252;28;20184;-77
2022/01/07 08:21:04;;;;;;;16.90;10.03;;;2.10;99.90;;;;;;5023790;28;20260;-78
2022/01/07 08:23:32;;;;;;;14.93;10.43;;;2.20;99.90;;;;;;5032095;28;20200;-77
2022/01/07 08:25:58;;;;;;;17.57;11.23;;;2.10;99.90;;;;;;5012808;28;20249;-78
2022/01/07 08:28:27;;;;;;;12.37;10.17;;;2.20;99.90;;;;;;5017178;28;20193;-78
2022/01/07 08:31:22;;;;;;;15.40;10.63;;;2.20;99.90;;;;;;5026158;28;20177;-77
2022/01/07 08:36:33;;;;;;;15.13;11.37;;;2.10;99.90;;;;;;5036548;28;20201;-78
2022/01/07 08:38:59;;;;;;;15.70;10.03;;;2.20;99.90;;;;;;5025306;28;20176;-77
2022/01/07 08:41:30;;;;;;;13.37;10.10;;;2.00;99.90;;;;;;5024214;28;20165;-78
2022/01/07 08:43:55;;;;;;;15.33;9.47;;;1.90;99.90;;;;;;5017020;28;20189;-78
2022/01/07 08:46:22;;;;;;;13.83;9.77;;;1.90;99.90;;;;;;5015585;28;20202;-78
2022/01/07 08:48:48;;;;;;;10.97;9.10;;;1.90;99.90;;;;;;5017037;28;20628;-78
2022/01/07 08:51:13;;;;;;;12.30;9.20;;;1.90;99.90;;;;;;5007683;28;20231;-77
2022/01/07 08:53:40;;;;;;;11.97;8.47;;;1.80;99.90;;;;;;5017059;28;20201;-77
2022/01/07 08:56:07;;;;;;;11.87;8.67;;;1.80;99.90;;;;;;5005787;28;20194;-77
2022/01/07 08:58:33;;;;;;;11.13;8.47;;;1.80;99.90;;;;;;5019811;28;20189;-78
2022/01/07 09:00:59;;;;;;;15.10;9.50;;;1.70;99.90;;;;;;5017882;28;20184;-79
2022/01/07 09:03:25;;;;;;;11.80;9.43;;;1.80;99.90;;;;;;5018588;28;20189;-78
2022/01/07 09:05:51;;;;;;;13.03;9.93;;;1.80;99.90;;;;;;5034159;28;20183;-78
2022/01/07 09:08:16;;;;;;;14.53;9.97;;;1.80;99.90;;;;;;5009675;28;20193;-78
2022/01/07 09:10:43;;;;;;;15.23;9.73;;;1.70;99.90;;;;;;5020200;28;20199;-78
2022/01/07 09:13:09;;;;;;;13.67;10.30;;;1.70;99.90;;;;;;5017926;28;20201;-77
2022/01/07 09:15:35;;;;;;;12.80;10.60;;;1.70;99.90;;;;;;5022406;28;20178;-79
2022/01/07 09:18:09;;;;;;;14.47;10.57;;;1.70;99.90;;;;;;5023274;28;20664;-77
2022/01/07 09:20:40;;;;;;;15.83;10.90;;;1.70;99.90;;;;;;5009137;28;20175;-79
2022/01/07 09:23:06;;;;;;;14.50;10.80;;;1.80;99.90;;;;;;5033426;28;20273;-77
2022/01/07 09:25:32;;;;;;;14.70;10.80;;;1.80;99.90;;;;;;5013854;28;20300;-78
2022/01/07 09:27:58;;;;;;;16.53;11.83;;;1.70;99.90;;;;;;5026493;28;20201;-79
2022/01/07 09:30:24;;;;;;;13.00;10.93;;;1.70;99.90;;;;;;5018209;28;20182;-78
2022/01/07 09:32:49;;;;;;;12.83;11.30;;;1.60;99.90;;;;;;5029872;28;20268;-78
2022/01/07 09:35:16;;;;;;;15.63;11.77;;;1.60;99.90;;;;;;5019002;28;20209;-78
2022/01/07 09:37:43;;;;;;;13.67;11.13;;;1.60;99.90;;;;;;5019833;28;20193;-77
2022/01/07 09:40:10;;;;;;;14.60;11.63;;;1.50;99.90;;;;;;5020083;28;20177;-78
2022/01/07 09:42:36;;;;;;;17.00;11.80;;;1.40;99.90;;;;;;5019758;28;20177;-78
2022/01/07 09:45:02;;;;;;;15.17;12.27;;;1.50;99.90;;;;;;5021748;28;20212;-78
2022/01/07 09:47:28;;;;;;;19.60;12.27;;;1.50;99.90;;;;;;5014022;28;20209;-76
2022/01/07 09:49:54;;;;;;;16.20;12.33;;;1.60;99.90;;;;;;5026192;28;20332;-78
2022/01/07 09:52:20;;;;;;;14.63;12.20;;;1.60;99.90;;;;;;5036742;28;20201;-77
2022/01/07 09:54:50;;;;;;;16.83;13.17;;;1.60;99.90;;;;;;5021058;28;20575;-78
2022/01/07 09:57:15;;;;;;;15.33;13.27;;;1.60;99.90;;;;;;5036774;28;20226;-78
2022/01/07 09:59:41;;;;;;;14.83;12.70;;;1.60;99.90;;;;;;5019875;28;20268;-77
2022/01/07 10:02:08;;;;;;;17.90;13.50;;;1.70;99.90;;;;;;5036741;28;20623;-78
2022/01/07 10:04:41;;;;;;;19.27;13.70;;;1.70;99.90;;;;;;5019944;28;20203;-77
2022/01/07 10:07:11;;;;;;;18.07;13.80;;;1.70;99.90;;;;;;5036801;28;20561;-77
2022/01/07 10:09:38;;;;;;;17.63;14.07;;;1.70;99.90;;;;;;5037785;28;20612;-77
2022/01/07 10:12:04;;;;;;;17.90;14.20;;;1.70;99.90;;;;;;5018238;28;20190;-77
2022/01/07 10:14:30;;;;;;;19.73;14.40;;;1.70;99.90;;;;;;5019752;28;20196;-77
2022/01/07 10:16:58;;;;;;;20.23;14.37;;;1.70;99.90;;;;;;5018692;28;20644;-77
2022/01/07 10:19:41;;;;;;;18.57;14.17;;;1.70;99.90;;;;;;5018242;28;20519;-78
2022/01/07 10:22:15;;;;;;;20.03;14.27;;;1.80;99.90;;;;;;5035707;28;20173;-77
2022/01/07 10:24:55;;;;;;;18.10;14.30;;;1.80;99.90;;;;;;5014720;28;20236;-78
2022/01/07 10:27:37;;;;;;;17.93;14.23;;;1.80;99.90;;;;;;5025258;28;20235;-78
2022/01/07 10:30:14;;;;;;;18.97;13.97;;;1.80;99.90;;;;;;5029789;28;20181;-78
2022/01/07 10:32:40;;;;;;;20.13;14.97;;;1.80;99.90;;;;;;5036091;28;20548;-78
2022/01/07 10:35:13;;;;;;;19.33;13.67;;;1.80;99.90;;;;;;5026311;28;20200;-76
2022/01/07 10:38:07;;;;;;;17.63;14.60;;;1.80;99.90;;;;;;5011351;28;20342;-77
2022/01/07 10:40:39;;;;;;;17.37;14.57;;;1.90;99.90;;;;;;5030864;28;20614;-77
2022/01/07 10:43:11;;;;;;;21.13;14.97;;;1.80;99.90;;;;;;5011388;28;20181;-78
2022/01/07 10:46:14;;;;;;;18.77;14.03;;;2.00;99.90;;;;;;5036599;28;20592;-77
2022/01/07 10:48:50;;;;;;;19.90;14.77;;;1.90;99.90;;;;;;5027931;28;20181;-77
2022/01/07 10:51:19;;;;;;;19.93;14.83;;;2.00;99.90;;;;;;5020373;28;20169;-77
2022/01/07 10:54:00;;;;;;;20.27;14.77;;;2.00;99.90;;;;;;5032499;28;20205;-77
2022/01/07 10:56:32;;;;;;;18.07;14.23;;;2.10;99.90;;;;;;5029961;28;20197;-77
2022/01/07 10:59:25;;;;;;;18.30;14.40;;;2.20;99.90;;;;;;5034908;28;20177;-77
2022/01/07 11:01:56;;;;;;;15.93;13.90;;;2.20;99.90;;;;;;5029613;28;20162;-77
2022/01/07 11:04:29;;;;;;;19.23;16.10;;;2.20;99.90;;;;;;5016149;28;20558;-78
2022/01/07 11:07:09;;;;;;;18.63;15.13;;;2.30;99.90;;;;;;5026529;28;20189;-77
2022/01/07 11:09:36;;;;;;;20.33;15.53;;;2.30;99.90;;;;;;5020654;28;20169;-78
2022/01/07 11:12:05;;;;;;;20.60;16.47;;;2.30;99.90;;;;;;5022987;28;20201;-78
2022/01/07 11:14:37;;;;;;;21.63;15.53;;;2.30;99.90;;;;;;5016683;28;20617;-78
2022/01/07 11:17:04;;;;;;;22.63;16.70;;;2.30;99.90;;;;;;5037242;28;20200;-78
2022/01/07 11:19:36;;;;;;;20.67;16.53;;;2.30;99.90;;;;;;5020810;28;20174;-77
2022/01/07 11:22:06;;;;;;;20.93;17.70;;;2.30;99.90;;;;;;5038817;28;20192;-77
2022/01/07 11:24:55;;;;;;;22.83;16.63;;;2.20;99.90;;;;;;5020082;28;20181;-78
2022/01/07 11:27:26;;;;;;;25.70;15.97;;;2.30;99.90;;;;;;5035193;28;20200;-77
2022/01/07 11:30:10;;;;;;;22.13;17.13;;;2.30;99.90;;;;;;5016948;28;20178;-77
2022/01/07 11:32:48;;;;;;;22.53;16.67;;;2.20;99.90;;;;;;5036140;28;20738;-77
2022/01/07 11:35:17;;;;;;;22.10;17.07;;;2.20;99.90;;;;;;5036386;28;20203;-79
2022/01/07 11:37:46;;;;;;;24.07;17.83;;;2.20;99.90;;;;;;5037272;28;20553;-77
2022/01/07 11:40:39;;;;;;;26.93;19.27;;;2.30;99.90;;;;;;5018148;28;20178;-79
2022/01/07 11:43:20;;;;;;;27.77;19.50;;;2.30;99.90;;;;;;5012211;28;20192;-77
2022/01/07 11:45:47;;;;;;;30.00;20.60;;;2.30;99.90;;;;;;5025445;28;20173;-78
2022/01/07 11:48:24;;;;;;;27.13;19.63;;;2.40;99.90;;;;;;5019385;28;20193;-78
2022/01/07 11:50:56;;;;;;;26.30;20.10;;;2.40;99.90;;;;;;5020425;28;20177;-78
2022/01/07 11:53:49;;;;;;;27.97;20.33;;;2.40;99.90;;;;;;5037642;28;20201;-79
2022/01/07 11:56:18;;;;;;;30.47;20.63;;;2.50;99.90;;;;;;5037808;28;20174;-78
2022/01/07 11:58:56;;;;;;;30.03;22.50;;;2.60;99.90;;;;;;5031047;28;20192;-79
2022/01/07 12:01:40;;;;;;;29.97;20.67;;;2.50;99.90;;;;;;5034942;28;20181;-78
2022/01/07 12:04:15;;;;;;;28.17;21.73;;;2.60;99.90;;;;;;5019098;28;20173;-77
2022/01/07 12:06:46;;;;;;;29.10;21.37;;;2.70;99.90;;;;;;5035217;28;20204;-77
2022/01/07 12:09:22;;;;;;;28.30;20.97;;;2.70;99.90;;;;;;5035195;28;20268;-77
2022/01/07 12:12:07;;;;;;;30.53;21.07;;;2.80;99.90;;;;;;5035286;28;20174;-78
2022/01/07 12:14:46;;;;;;;26.53;20.07;;;2.80;99.90;;;;;;5035736;28;20181;-79
2022/01/07 12:17:18;;;;;;;29.53;20.00;;;2.80;99.90;;;;;;5021494;28;20197;-77
2022/01/07 12:19:47;;;;;;;25.60;19.23;;;2.80;99.90;;;;;;5022236;28;20251;-77
2022/01/07 12:22:16;;;;;;;23.47;18.13;;;2.90;99.90;;;;;;5016907;28;20174;-78
2022/01/07 12:24:44;;;;;;;27.50;17.83;;;2.90;99.90;;;;;;5034678;28;20185;-77
2022/01/07 12:27:16;;;;;;;23.13;17.37;;;2.90;99.90;;;;;;5018295;28;20201;-77
2022/01/07 12:29:45;;;;;;;24.63;17.37;;;3.00;99.90;;;;;;5015788;28;20181;-78
2022/01/07 12:32:28;;;;;;;21.73;16.70;;;3.00;99.90;;;;;;5018191;28;20217;-78
2022/01/07 12:34:59;;;;;;;21.97;17.40;;;3.00;99.90;;;;;;5036561;28;20169;-77
2022/01/07 12:37:25;;;;;;;23.73;16.57;;;3.10;99.90;;;;;;5033982;28;20193;-77
2022/01/07 12:40:04;;;;;;;23.83;16.27;;;3.10;99.90;;;;;;5018270;28;20178;-79
2022/01/07 12:42:38;;;;;;;23.20;16.60;;;3.10;99.90;;;;;;5033590;28;20195;-77
2022/01/07 12:45:11;;;;;;;20.93;16.33;;;3.20;99.90;;;;;;5018491;28;20174;-78
2022/01/07 12:47:37;;;;;;;22.53;17.00;;;3.30;99.90;;;;;;5034240;28;20197;-77
2022/01/07 12:50:05;;;;;;;23.10;16.97;;;3.50;99.90;;;;;;5019656;28;20181;-78
2022/01/07 12:52:37;;;;;;;24.27;17.30;;;3.50;99.90;;;;;;5038979;28;20200;-78